sensor_id;sensor_type;location;lat;lon;timestamp;temperature;humidity
12130;DHT22;6128;59.340;18.040;2023-03-14T00:01:12;6.30;99.90
12130;DHT22;6128;59.340;18.040;2023-03-14T00:03:42;6.30;99.90
12130;DHT22;6128;59.340;18.040;2023-03-14T00:06:13;6.40;99.90
12130;DHT22;6128;59.340;18.040;2023-03-14T00:08:41;6.40;99.90
12130;DHT22;6128;59.340;18.040;2023-03-14T00:11:11;6.40;99.90
12130;DHT22;6128;59.340;18.040;2023-03-14T00:13:40;6.40;99.90
12130;DHT22;6128;59.340;18.040;2023-03-14T00:16:09;6.40;99.90
12130;DHT22;6128;59.340;18.040;2023-03-14T00:18:36;6.40;99.90
12130;DHT22;6128;59.340;18.040;2023-03-14T00:21:05;6.40;99.90
12130;DHT22;6128;59.340;18.040;2023-03-14T00:23:36;6.40;99.90
12130;DHT22;6128;59.340;18.040;2023-03-14T00:26:05;6.40;99.90
12130;DHT22;6128;59.340;18.040;2023-03-14T00:28:32;6.40;99.90
12130;DHT22;6128;59.340;18.040;2023-03-14T00:31:02;6.40;99.90
12130;DHT22;6128;59.340;18.040;2023-03-14T00:33:29;6.40;99.90
12130;DHT22;6128;59.340;18.040;2023-03-14T00:35:57;6.30;99.90
12130;DHT22;6128;59.340;18.040;2023-03-14T00:38:25;6.40;99.90
12130;DHT22;6128;59.340;18.040;2023-03-14T00:40:54;6.40;99.90
12130;DHT22;6128;59.340;18.040;2023-03-14T00:43:22;6.40;99.90
12130;DHT22;6128;59.340;18.040;2023-03-14T00:45:49;6.40;99.90
12130;DHT22;6128;59.340;18.040;2023-03-14T00:48:17;6.40;99.90
12130;DHT22;6128;59.340;18.040;2023-03-14T00:50:44;6.40;99.90
12130;DHT22;6128;59.340;18.040;2023-03-14T00:53:12;6.40;99.90
12130;DHT22;6128;59.340;18.040;2023-03-14T00:55:41;6.40;99.90
12130;DHT22;6128;59.340;18.040;2023-03-14T00:58:11;6.40;99.90
12130;DHT22;6128;59.340;18.040;2023-03-14T01:00:39;6.50;99.90
12130;DHT22;6128;59.340;18.040;2023-03-14T01:03:07;6.50;99.90
12130;DHT22;6128;59.340;18.040;2023-03-14T01:05:35;6.50;99.90
12130;DHT22;6128;59.340;18.040;2023-03-14T01:08:03;6.50;99.90
12130;DHT22;6128;59.340;18.040;2023-03-14T01:10:30;6.50;99.90
12130;DHT22;6128;59.340;18.040;2023-03-14T01:12:57;6.50;99.90
12130;DHT22;6128;59.340;18.040;2023-03-14T01:15:26;6.50;99.90
12130;DHT22;6128;59.340;18.040;2023-03-14T01:17:53;6.50;99.90
12130;DHT22;6128;59.340;18.040;2023-03-14T01:20:20;6.50;99.90
12130;DHT22;6128;59.340;18.040;2023-03-14T01:22:48;6.50;99.90
12130;DHT22;6128;59.340;18.040;2023-03-14T01:25:16;6.50;99.90
12130;DHT22;6128;59.340;18.040;2023-03-14T01:27:43;6.50;99.90
12130;DHT22;6128;59.340;18.040;2023-03-14T01:30:12;6.50;99.90
12130;DHT22;6128;59.340;18.040;2023-03-14T01:32:41;6.50;99.90
12130;DHT22;6128;59.340;18.040;2023-03-14T01:35:08;6.50;99.90
12130;DHT22;6128;59.340;18.040;2023-03-14T01:37:35;6.50;99.90
12130;DHT22;6128;59.340;18.040;2023-03-14T01:40:06;6.50;99.90
12130;DHT22;6128;59.340;18.040;2023-03-14T01:42:33;6.50;99.90
12130;DHT22;6128;59.340;18.040;2023-03-14T01:45:03;6.50;99.90
12130;DHT22;6128;59.340;18.040;2023-03-14T01:47:31;6.50;99.90
12130;DHT22;6128;59.340;18.040;2023-03-14T01:50:03;6.60;99.90
12130;DHT22;6128;59.340;18.040;2023-03-14T01:52:33;6.50;99.90
12130;DHT22;6128;59.340;18.040;2023-03-14T01:55:05;6.50;99.90
12130;DHT22;6128;59.340;18.040;2023-03-14T01:57:36;6.50;99.90
12130;DHT22;6128;59.340;18.040;2023-03-14T02:00:07;6.50;99.90
12130;DHT22;6128;59.340;18.040;2023-03-14T02:02:38;6.50;99.90
12130;DHT22;6128;59.340;18.040;2023-03-14T02:05:08;6.50;99.90
12130;DHT22;6128;59.340;18.040;2023-03-14T02:07:39;6.50;99.90
12130;DHT22;6128;59.340;18.040;2023-03-14T02:10:09;6.50;99.90
12130;DHT22;6128;59.340;18.040;2023-03-14T02:12:37;6.50;99.90
12130;DHT22;6128;59.340;18.040;2023-03-14T02:15:05;6.50;99.90
12130;DHT22;6128;59.340;18.040;2023-03-14T02:17:32;6.50;99.90
12130;DHT22;6128;59.340;18.040;2023-03-14T02:20:24;6.50;99.90
12130;DHT22;6128;59.340;18.040;2023-03-14T02:22:54;6.50;99.90
12130;DHT22;6128;59.340;18.040;2023-03-14T02:25:28;6.50;99.90
12130;DHT22;6128;59.340;18.040;2023-03-14T02:28:00;6.50;99.90
12130;DHT22;6128;59.340;18.040;2023-03-14T02:30:29;6.50;99.90
12130;DHT22;6128;59.340;18.040;2023-03-14T02:33:00;6.60;99.90
12130;DHT22;6128;59.340;18.040;2023-03-14T02:35:34;6.60;99.90
12130;DHT22;6128;59.340;18.040;2023-03-14T02:38:07;6.60;99.90
12130;DHT22;6128;59.340;18.040;2023-03-14T02:40:37;6.60;99.90
12130;DHT22;6128;59.340;18.040;2023-03-14T02:43:06;6.60;99.90
12130;DHT22;6128;59.340;18.040;2023-03-14T02:45:39;6.60;99.90
12130;DHT22;6128;59.340;18.040;2023-03-14T02:48:10;6.60;99.90
12130;DHT22;6128;59.340;18.040;2023-03-14T02:50:38;6.60;99.90
12130;DHT22;6128;59.340;18.040;2023-03-14T02:53:05;6.60;99.90
12130;DHT22;6128;59.340;18.040;2023-03-14T02:55:33;6.70;99.90
12130;DHT22;6128;59.340;18.040;2023-03-14T02:58:00;6.70;99.90
12130;DHT22;6128;59.340;18.040;2023-03-14T03:00:28;6.70;99.90
12130;DHT22;6128;59.340;18.040;2023-03-14T03:02:56;6.70;99.90
12130;DHT22;6128;59.340;18.040;2023-03-14T03:05:23;6.70;99.90
12130;DHT22;6128;59.340;18.040;2023-03-14T03:07:50;6.70;99.90
12130;DHT22;6128;59.340;18.040;2023-03-14T03:10:18;6.70;99.90
12130;DHT22;6128;59.340;18.040;2023-03-14T03:12:45;6.70;99.90
12130;DHT22;6128;59.340;18.040;2023-03-14T03:15:12;6.70;99.90
12130;DHT22;6128;59.340;18.040;2023-03-14T03:17:40;6.70;99.90
12130;DHT22;6128;59.340;18.040;2023-03-14T03:20:09;6.70;99.90
12130;DHT22;6128;59.340;18.040;2023-03-14T03:22:36;6.70;99.90
12130;DHT22;6128;59.340;18.040;2023-03-14T03:25:05;6.70;99.90
12130;DHT22;6128;59.340;18.040;2023-03-14T03:27:37;6.70;99.90
12130;DHT22;6128;59.340;18.040;2023-03-14T03:30:06;6.70;99.90
12130;DHT22;6128;59.340;18.040;2023-03-14T03:32:33;6.70;99.90
12130;DHT22;6128;59.340;18.040;2023-03-14T03:35:03;6.60;99.90
12130;DHT22;6128;59.340;18.040;2023-03-14T03:37:30;6.70;99.90
12130;DHT22;6128;59.340;18.040;2023-03-14T03:39:58;6.70;99.90
12130;DHT22;6128;59.340;18.040;2023-03-14T03:42:26;6.70;99.90
12130;DHT22;6128;59.340;18.040;2023-03-14T03:44:53;6.70;99.90
12130;DHT22;6128;59.340;18.040;2023-03-14T03:47:20;6.80;99.90
12130;DHT22;6128;59.340;18.040;2023-03-14T03:49:47;6.80;99.90
12130;DHT22;6128;59.340;18.040;2023-03-14T03:52:16;6.80;99.90
12130;DHT22;6128;59.340;18.040;2023-03-14T03:54:43;6.80;99.90
12130;DHT22;6128;59.340;18.040;2023-03-14T03:57:10;6.80;99.90
12130;DHT22;6128;59.340;18.040;2023-03-14T03:59:38;6.80;99.90
12130;DHT22;6128;59.340;18.040;2023-03-14T04:02:06;6.80;99.90
12130;DHT22;6128;59.340;18.040;2023-03-14T04:04:34;6.80;99.90
12130;DHT22;6128;59.340;18.040;2023-03-14T04:07:03;6.80;99.90
12130;DHT22;6128;59.340;18.040;2023-03-14T04:09:32;6.80;99.90
12130;DHT22;6128;59.340;18.040;2023-03-14T04:12:00;6.80;99.90
12130;DHT22;6128;59.340;18.040;2023-03-14T04:14:27;6.80;99.90
12130;DHT22;6128;59.340;18.040;2023-03-14T04:16:54;6.80;99.90
12130;DHT22;6128;59.340;18.040;2023-03-14T04:19:21;6.80;99.90
12130;DHT22;6128;59.340;18.040;2023-03-14T04:21:48;6.80;99.90
12130;DHT22;6128;59.340;18.040;2023-03-14T04:24:15;6.80;99.90
12130;DHT22;6128;59.340;18.040;2023-03-14T04:26:44;6.80;99.90
12130;DHT22;6128;59.340;18.040;2023-03-14T04:29:11;6.80;99.90
12130;DHT22;6128;59.340;18.040;2023-03-14T04:31:38;6.80;99.90
12130;DHT22;6128;59.340;18.040;2023-03-14T04:34:05;6.80;99.90
12130;DHT22;6128;59.340;18.040;2023-03-14T04:36:32;6.70;99.90
12130;DHT22;6128;59.340;18.040;2023-03-14T04:38:59;6.70;99.90
12130;DHT22;6128;59.340;18.040;2023-03-14T04:41:27;6.70;99.90
12130;DHT22;6128;59.340;18.040;2023-03-14T04:43:56;6.60;99.90
12130;DHT22;6128;59.340;18.040;2023-03-14T04:46:23;6.60;99.90
12130;DHT22;6128;59.340;18.040;2023-03-14T04:48:50;6.60;99.90
12130;DHT22;6128;59.340;18.040;2023-03-14T04:51:17;6.70;99.90
12130;DHT22;6128;59.340;18.040;2023-03-14T04:53:44;6.60;99.90
12130;DHT22;6128;59.340;18.040;2023-03-14T04:56:12;6.70;99.90
12130;DHT22;6128;59.340;18.040;2023-03-14T04:58:39;6.60;99.90
12130;DHT22;6128;59.340;18.040;2023-03-14T05:01:08;6.70;99.90
12130;DHT22;6128;59.340;18.040;2023-03-14T05:03:35;6.60;99.90
12130;DHT22;6128;59.340;18.040;2023-03-14T05:06:04;6.60;99.90
12130;DHT22;6128;59.340;18.040;2023-03-14T05:08:31;6.60;99.90
12130;DHT22;6128;59.340;18.040;2023-03-14T05:10:58;6.60;99.90
12130;DHT22;6128;59.340;18.040;2023-03-14T05:13:26;6.60;99.90
12130;DHT22;6128;59.340;18.040;2023-03-14T05:15:53;6.60;99.90
12130;DHT22;6128;59.340;18.040;2023-03-14T05:18:22;6.60;99.90
12130;DHT22;6128;59.340;18.040;2023-03-14T05:20:50;6.60;99.90
12130;DHT22;6128;59.340;18.040;2023-03-14T05:23:18;6.50;99.90
12130;DHT22;6128;59.340;18.040;2023-03-14T05:25:45;6.50;99.90
12130;DHT22;6128;59.340;18.040;2023-03-14T05:28:12;6.50;99.90
12130;DHT22;6128;59.340;18.040;2023-03-14T05:30:40;6.50;99.90
12130;DHT22;6128;59.340;18.040;2023-03-14T05:33:07;6.40;99.90
12130;DHT22;6128;59.340;18.040;2023-03-14T05:35:35;6.40;99.90
12130;DHT22;6128;59.340;18.040;2023-03-14T05:38:03;6.40;99.90
12130;DHT22;6128;59.340;18.040;2023-03-14T05:40:30;6.40;99.90
12130;DHT22;6128;59.340;18.040;2023-03-14T05:42:57;6.40;99.90
12130;DHT22;6128;59.340;18.040;2023-03-14T05:45:34;6.40;99.90
12130;DHT22;6128;59.340;18.040;2023-03-14T05:48:09;6.40;99.90
12130;DHT22;6128;59.340;18.040;2023-03-14T05:50:38;6.30;99.90
12130;DHT22;6128;59.340;18.040;2023-03-14T05:53:05;6.30;99.90
12130;DHT22;6128;59.340;18.040;2023-03-14T05:55:33;6.30;99.90
12130;DHT22;6128;59.340;18.040;2023-03-14T05:58:00;6.30;99.90
12130;DHT22;6128;59.340;18.040;2023-03-14T06:00:27;6.30;99.90
12130;DHT22;6128;59.340;18.040;2023-03-14T06:02:56;6.30;99.90
12130;DHT22;6128;59.340;18.040;2023-03-14T06:05:25;6.30;99.90
12130;DHT22;6128;59.340;18.040;2023-03-14T06:07:59;6.30;99.90
12130;DHT22;6128;59.340;18.040;2023-03-14T06:10:37;6.30;99.90
12130;DHT22;6128;59.340;18.040;2023-03-14T06:13:04;6.30;99.90
12130;DHT22;6128;59.340;18.040;2023-03-14T06:15:31;6.30;99.90
12130;DHT22;6128;59.340;18.040;2023-03-14T06:18:00;6.30;99.90
12130;DHT22;6128;59.340;18.040;2023-03-14T06:20:28;6.20;99.90
12130;DHT22;6128;59.340;18.040;2023-03-14T06:22:56;6.30;99.90
12130;DHT22;6128;59.340;18.040;2023-03-14T06:25:23;6.20;99.90
12130;DHT22;6128;59.340;18.040;2023-03-14T06:27:51;6.20;99.90
12130;DHT22;6128;59.340;18.040;2023-03-14T06:30:19;6.20;99.90
12130;DHT22;6128;59.340;18.040;2023-03-14T06:32:46;6.20;99.90
12130;DHT22;6128;59.340;18.040;2023-03-14T06:35:13;6.20;99.90
12130;DHT22;6128;59.340;18.040;2023-03-14T06:37:40;6.20;99.90
12130;DHT22;6128;59.340;18.040;2023-03-14T06:40:10;6.20;99.90
12130;DHT22;6128;59.340;18.040;2023-03-14T06:42:42;6.20;99.90
12130;DHT22;6128;59.340;18.040;2023-03-14T06:45:10;6.10;99.90
12130;DHT22;6128;59.340;18.040;2023-03-14T06:47:40;6.10;99.90
12130;DHT22;6128;59.340;18.040;2023-03-14T06:50:08;6.10;99.90
12130;DHT22;6128;59.340;18.040;2023-03-14T06:52:36;6.10;99.90
12130;DHT22;6128;59.340;18.040;2023-03-14T06:55:04;6.20;99.90
12130;DHT22;6128;59.340;18.040;2023-03-14T06:57:32;6.20;99.90
12130;DHT22;6128;59.340;18.040;2023-03-14T07:00:00;6.20;99.90
12130;DHT22;6128;59.340;18.040;2023-03-14T07:02:27;6.20;99.90
12130;DHT22;6128;59.340;18.040;2023-03-14T07:04:54;6.20;99.90
12130;DHT22;6128;59.340;18.040;2023-03-14T07:07:21;6.20;99.90
12130;DHT22;6128;59.340;18.040;2023-03-14T07:09:48;6.20;99.90
12130;DHT22;6128;59.340;18.040;2023-03-14T07:12:15;6.20;99.90
12130;DHT22;6128;59.340;18.040;2023-03-14T07:14:44;6.20;99.90
12130;DHT22;6128;59.340;18.040;2023-03-14T07:17:11;6.20;99.90
12130;DHT22;6128;59.340;18.040;2023-03-14T07:19:38;6.20;99.90
12130;DHT22;6128;59.340;18.040;2023-03-14T07:22:06;6.10;99.90
12130;DHT22;6128;59.340;18.040;2023-03-14T07:24:33;6.10;99.90
12130;DHT22;6128;59.340;18.040;2023-03-14T07:27:01;6.10;99.90
12130;DHT22;6128;59.340;18.040;2023-03-14T07:29:28;6.00;99.90
12130;DHT22;6128;59.340;18.040;2023-03-14T07:31:56;6.10;99.90
12130;DHT22;6128;59.340;18.040;2023-03-14T07:34:23;6.10;99.90
12130;DHT22;6128;59.340;18.040;2023-03-14T07:36:50;6.10;99.90
12130;DHT22;6128;59.340;18.040;2023-03-14T07:39:18;6.10;99.90
12130;DHT22;6128;59.340;18.040;2023-03-14T07:41:45;6.40;99.90
12130;DHT22;6128;59.340;18.040;2023-03-14T07:44:12;7.10;99.90
12130;DHT22;6128;59.340;18.040;2023-03-14T07:46:39;7.90;99.90
12130;DHT22;6128;59.340;18.040;2023-03-14T07:49:08;8.80;99.90
12130;DHT22;6128;59.340;18.040;2023-03-14T07:51:35;9.70;99.90
12130;DHT22;6128;59.340;18.040;2023-03-14T07:54:02;10.40;99.90
12130;DHT22;6128;59.340;18.040;2023-03-14T07:56:29;10.50;99.90
12130;DHT22;6128;59.340;18.040;2023-03-14T07:58:56;10.30;99.90
12130;DHT22;6128;59.340;18.040;2023-03-14T08:01:24;10.50;99.90
12130;DHT22;6128;59.340;18.040;2023-03-14T08:03:51;10.80;99.90
12130;DHT22;6128;59.340;18.040;2023-03-14T08:06:19;11.10;99.90
12130;DHT22;6128;59.340;18.040;2023-03-14T08:08:46;11.20;99.90
12130;DHT22;6128;59.340;18.040;2023-03-14T08:11:14;11.10;99.90
12130;DHT22;6128;59.340;18.040;2023-03-14T08:13:41;10.80;99.90
12130;DHT22;6128;59.340;18.040;2023-03-14T08:16:15;10.50;99.90
12130;DHT22;6128;59.340;18.040;2023-03-14T08:18:42;10.10;99.90
12130;DHT22;6128;59.340;18.040;2023-03-14T08:21:09;9.90;99.90
12130;DHT22;6128;59.340;18.040;2023-03-14T08:23:38;9.80;99.90
12130;DHT22;6128;59.340;18.040;2023-03-14T08:26:05;9.60;99.90
12130;DHT22;6128;59.340;18.040;2023-03-14T08:28:32;9.30;99.90
12130;DHT22;6128;59.340;18.040;2023-03-14T08:31:00;9.00;99.90
12130;DHT22;6128;59.340;18.040;2023-03-14T08:33:29;8.80;99.90
12130;DHT22;6128;59.340;18.040;2023-03-14T08:35:58;8.60;99.90
12130;DHT22;6128;59.340;18.040;2023-03-14T08:38:25;8.50;99.90
12130;DHT22;6128;59.340;18.040;2023-03-14T08:40:57;8.30;99.90
12130;DHT22;6128;59.340;18.040;2023-03-14T08:43:25;8.30;99.90
12130;DHT22;6128;59.340;18.040;2023-03-14T08:45:52;8.30;99.90
12130;DHT22;6128;59.340;18.040;2023-03-14T08:48:19;8.40;99.90
12130;DHT22;6128;59.340;18.040;2023-03-14T08:50:47;8.30;99.90
12130;DHT22;6128;59.340;18.040;2023-03-14T08:53:14;8.40;99.90
12130;DHT22;6128;59.340;18.040;2023-03-14T08:55:41;8.30;99.90
12130;DHT22;6128;59.340;18.040;2023-03-14T08:58:10;8.20;99.90
12130;DHT22;6128;59.340;18.040;2023-03-14T09:00:37;8.40;99.90
12130;DHT22;6128;59.340;18.040;2023-03-14T09:03:04;8.80;99.90
12130;DHT22;6128;59.340;18.040;2023-03-14T09:05:36;9.40;99.90
12130;DHT22;6128;59.340;18.040;2023-03-14T09:08:03;9.70;99.90
12130;DHT22;6128;59.340;18.040;2023-03-14T09:10:30;9.80;99.90
12130;DHT22;6128;59.340;18.040;2023-03-14T09:12:57;9.70;99.90
12130;DHT22;6128;59.340;18.040;2023-03-14T09:15:27;9.40;99.90
12130;DHT22;6128;59.340;18.040;2023-03-14T09:17:54;9.00;99.90
12130;DHT22;6128;59.340;18.040;2023-03-14T09:20:21;8.80;99.90
12130;DHT22;6128;59.340;18.040;2023-03-14T09:22:48;8.60;99.90
12130;DHT22;6128;59.340;18.040;2023-03-14T09:25:16;8.60;99.90
12130;DHT22;6128;59.340;18.040;2023-03-14T09:27:43;8.60;99.90
12130;DHT22;6128;59.340;18.040;2023-03-14T09:30:11;8.70;99.90
12130;DHT22;6128;59.340;18.040;2023-03-14T09:32:40;8.80;99.90
12130;DHT22;6128;59.340;18.040;2023-03-14T09:35:08;8.70;99.90
12130;DHT22;6128;59.340;18.040;2023-03-14T09:37:35;8.70;99.90
12130;DHT22;6128;59.340;18.040;2023-03-14T09:40:03;8.60;99.90
12130;DHT22;6128;59.340;18.040;2023-03-14T09:42:37;8.70;99.90
12130;DHT22;6128;59.340;18.040;2023-03-14T09:45:09;8.70;99.90
12130;DHT22;6128;59.340;18.040;2023-03-14T09:47:37;8.80;99.90
12130;DHT22;6128;59.340;18.040;2023-03-14T09:50:11;8.80;99.90
12130;DHT22;6128;59.340;18.040;2023-03-14T09:52:40;8.80;99.90
12130;DHT22;6128;59.340;18.040;2023-03-14T09:55:12;8.70;99.90
12130;DHT22;6128;59.340;18.040;2023-03-14T09:57:41;8.60;99.90
12130;DHT22;6128;59.340;18.040;2023-03-14T10:00:15;8.50;99.90
12130;DHT22;6128;59.340;18.040;2023-03-14T10:02:45;8.40;99.90
12130;DHT22;6128;59.340;18.040;2023-03-14T10:05:17;8.20;99.90
12130;DHT22;6128;59.340;18.040;2023-03-14T10:07:44;8.20;99.90
12130;DHT22;6128;59.340;18.040;2023-03-14T10:10:15;8.00;99.90
12130;DHT22;6128;59.340;18.040;2023-03-14T10:12:45;7.80;99.90
12130;DHT22;6128;59.340;18.040;2023-03-14T10:15:14;7.70;99.90
12130;DHT22;6128;59.340;18.040;2023-03-14T10:17:47;7.70;99.90
12130;DHT22;6128;59.340;18.040;2023-03-14T10:20:32;7.70;99.90
12130;DHT22;6128;59.340;18.040;2023-03-14T10:23:01;7.70;99.90
12130;DHT22;6128;59.340;18.040;2023-03-14T10:25:30;7.80;99.90
12130;DHT22;6128;59.340;18.040;2023-03-14T10:27:58;7.90;99.90
12130;DHT22;6128;59.340;18.040;2023-03-14T10:30:34;8.10;99.90
12130;DHT22;6128;59.340;18.040;2023-03-14T10:33:10;8.20;99.90
12130;DHT22;6128;59.340;18.040;2023-03-14T10:35:39;8.30;99.90
12130;DHT22;6128;59.340;18.040;2023-03-14T10:38:12;8.40;99.90
12130;DHT22;6128;59.340;18.040;2023-03-14T10:40:41;8.50;99.90
12130;DHT22;6128;59.340;18.040;2023-03-14T10:43:16;8.60;99.90
12130;DHT22;6128;59.340;18.040;2023-03-14T10:45:51;8.70;99.90
12130;DHT22;6128;59.340;18.040;2023-03-14T10:48:29;8.70;99.90
12130;DHT22;6128;59.340;18.040;2023-03-14T10:51:05;8.70;99.90
12130;DHT22;6128;59.340;18.040;2023-03-14T10:53:38;8.80;99.90
12130;DHT22;6128;59.340;18.040;2023-03-14T10:56:06;8.80;99.90
12130;DHT22;6128;59.340;18.040;2023-03-14T10:58:41;8.70;99.90
12130;DHT22;6128;59.340;18.040;2023-03-14T11:01:29;8.70;99.90
12130;DHT22;6128;59.340;18.040;2023-03-14T11:04:02;8.70;99.90
12130;DHT22;6128;59.340;18.040;2023-03-14T11:06:38;8.60;99.90
12130;DHT22;6128;59.340;18.040;2023-03-14T11:09:14;8.50;99.90
12130;DHT22;6128;59.340;18.040;2023-03-14T11:11:47;8.40;99.90
12130;DHT22;6128;59.340;18.040;2023-03-14T11:14:21;8.30;99.90
12130;DHT22;6128;59.340;18.040;2023-03-14T11:16:59;8.30;99.90
12130;DHT22;6128;59.340;18.040;2023-03-14T11:19:38;8.20;99.90
12130;DHT22;6128;59.340;18.040;2023-03-14T11:22:17;8.20;99.90
12130;DHT22;6128;59.340;18.040;2023-03-14T11:25:12;8.10;99.90
12130;DHT22;6128;59.340;18.040;2023-03-14T11:27:44;8.10;99.90
12130;DHT22;6128;59.340;18.040;2023-03-14T11:30:19;8.10;99.90
12130;DHT22;6128;59.340;18.040;2023-03-14T11:32:50;8.00;99.90
12130;DHT22;6128;59.340;18.040;2023-03-14T11:35:26;8.00;99.90
12130;DHT22;6128;59.340;18.040;2023-03-14T11:38:02;8.00;99.90
12130;DHT22;6128;59.340;18.040;2023-03-14T11:40:31;8.10;99.90
12130;DHT22;6128;59.340;18.040;2023-03-14T11:43:09;8.00;99.90
12130;DHT22;6128;59.340;18.040;2023-03-14T11:45:40;8.00;99.90
12130;DHT22;6128;59.340;18.040;2023-03-14T11:48:16;7.90;99.90
12130;DHT22;6128;59.340;18.040;2023-03-14T11:50:46;7.80;99.90
12130;DHT22;6128;59.340;18.040;2023-03-14T11:53:21;7.80;99.90
12130;DHT22;6128;59.340;18.040;2023-03-14T11:55:49;7.80;99.90
12130;DHT22;6128;59.340;18.040;2023-03-14T11:58:20;7.70;99.90
12130;DHT22;6128;59.340;18.040;2023-03-14T12:00:49;7.60;99.90
12130;DHT22;6128;59.340;18.040;2023-03-14T12:03:24;7.40;99.90
12130;DHT22;6128;59.340;18.040;2023-03-14T12:05:59;7.40;99.90
12130;DHT22;6128;59.340;18.040;2023-03-14T12:08:48;7.30;99.90
12130;DHT22;6128;59.340;18.040;2023-03-14T12:11:24;7.20;99.90
12130;DHT22;6128;59.340;18.040;2023-03-14T12:13:53;7.10;99.90
12130;DHT22;6128;59.340;18.040;2023-03-14T12:16:35;7.00;99.90
12130;DHT22;6128;59.340;18.040;2023-03-14T12:19:39;7.00;99.90
12130;DHT22;6128;59.340;18.040;2023-03-14T12:22:21;7.10;99.90
12130;DHT22;6128;59.340;18.040;2023-03-14T12:25:03;7.00;99.90
12130;DHT22;6128;59.340;18.040;2023-03-14T12:27:48;7.00;99.90
12130;DHT22;6128;59.340;18.040;2023-03-14T12:30:23;7.00;99.90
12130;DHT22;6128;59.340;18.040;2023-03-14T12:33:26;6.90;99.90
12130;DHT22;6128;59.340;18.040;2023-03-14T12:35:58;6.90;99.90
12130;DHT22;6128;59.340;18.040;2023-03-14T12:38:32;7.00;99.90
12130;DHT22;6128;59.340;18.040;2023-03-14T12:41:14;7.00;99.90
12130;DHT22;6128;59.340;18.040;2023-03-14T12:43:41;7.10;99.90
12130;DHT22;6128;59.340;18.040;2023-03-14T12:46:20;7.10;99.90
12130;DHT22;6128;59.340;18.040;2023-03-14T12:48:49;7.10;99.90
12130;DHT22;6128;59.340;18.040;2023-03-14T12:51:19;7.10;99.90
12130;DHT22;6128;59.340;18.040;2023-03-14T12:56:59;7.10;99.90
12130;DHT22;6128;59.340;18.040;2023-03-14T12:59:33;7.10;99.90
12130;DHT22;6128;59.340;18.040;2023-03-14T13:02:13;7.10;99.90
12130;DHT22;6128;59.340;18.040;2023-03-14T13:04:47;7.10;99.90
12130;DHT22;6128;59.340;18.040;2023-03-14T13:07:33;7.10;99.90
12130;DHT22;6128;59.340;18.040;2023-03-14T13:12:55;7.00;99.90
12130;DHT22;6128;59.340;18.040;2023-03-14T13:15:27;7.00;99.90
12130;DHT22;6128;59.340;18.040;2023-03-14T13:17:59;7.00;99.90
12130;DHT22;6128;59.340;18.040;2023-03-14T13:20:31;7.00;99.90
12130;DHT22;6128;59.340;18.040;2023-03-14T13:22:59;6.90;99.90
12130;DHT22;6128;59.340;18.040;2023-03-14T13:25:30;6.90;99.90
12130;DHT22;6128;59.340;18.040;2023-03-14T13:28:01;6.80;99.90
12130;DHT22;6128;59.340;18.040;2023-03-14T13:30:38;6.80;99.90
12130;DHT22;6128;59.340;18.040;2023-03-14T13:33:05;6.70;99.90
12130;DHT22;6128;59.340;18.040;2023-03-14T13:35:42;6.70;99.90
12130;DHT22;6128;59.340;18.040;2023-03-14T13:38:18;6.60;99.90
12130;DHT22;6128;59.340;18.040;2023-03-14T13:40:46;6.60;99.90
12130;DHT22;6128;59.340;18.040;2023-03-14T13:43:27;6.60;99.90
12130;DHT22;6128;59.340;18.040;2023-03-14T13:46:01;6.50;99.90
12130;DHT22;6128;59.340;18.040;2023-03-14T13:48:32;6.50;99.90
12130;DHT22;6128;59.340;18.040;2023-03-14T13:51:02;6.40;99.90
12130;DHT22;6128;59.340;18.040;2023-03-14T13:53:31;6.30;99.90
12130;DHT22;6128;59.340;18.040;2023-03-14T13:56:02;6.30;99.90
12130;DHT22;6128;59.340;18.040;2023-03-14T13:58:32;6.30;99.90
12130;DHT22;6128;59.340;18.040;2023-03-14T14:01:04;6.20;99.90
12130;DHT22;6128;59.340;18.040;2023-03-14T14:03:33;6.20;99.90
12130;DHT22;6128;59.340;18.040;2023-03-14T14:06:02;6.20;99.90
12130;DHT22;6128;59.340;18.040;2023-03-14T14:08:30;6.20;99.90
12130;DHT22;6128;59.340;18.040;2023-03-14T14:11:01;6.10;99.90
12130;DHT22;6128;59.340;18.040;2023-03-14T14:13:32;6.00;99.90
12130;DHT22;6128;59.340;18.040;2023-03-14T14:16:02;5.90;99.90
12130;DHT22;6128;59.340;18.040;2023-03-14T14:18:31;5.90;99.90
12130;DHT22;6128;59.340;18.040;2023-03-14T14:20:59;5.80;99.90
12130;DHT22;6128;59.340;18.040;2023-03-14T14:23:29;5.80;99.90
12130;DHT22;6128;59.340;18.040;2023-03-14T14:25:58;5.70;99.90
12130;DHT22;6128;59.340;18.040;2023-03-14T14:28:28;5.70;99.90
12130;DHT22;6128;59.340;18.040;2023-03-14T14:31:02;5.70;99.90
12130;DHT22;6128;59.340;18.040;2023-03-14T14:33:38;5.70;99.90
12130;DHT22;6128;59.340;18.040;2023-03-14T14:36:16;5.70;99.90
12130;DHT22;6128;59.340;18.040;2023-03-14T14:38:57;5.70;99.90
12130;DHT22;6128;59.340;18.040;2023-03-14T14:41:30;5.60;99.90
12130;DHT22;6128;59.340;18.040;2023-03-14T14:44:02;5.50;99.90
12130;DHT22;6128;59.340;18.040;2023-03-14T14:46:33;5.40;99.90
12130;DHT22;6128;59.340;18.040;2023-03-14T14:49:06;5.40;99.90
12130;DHT22;6128;59.340;18.040;2023-03-14T14:51:46;5.30;99.90
12130;DHT22;6128;59.340;18.040;2023-03-14T14:54:33;5.20;99.90
12130;DHT22;6128;59.340;18.040;2023-03-14T14:57:03;5.10;99.90
12130;DHT22;6128;59.340;18.040;2023-03-14T14:59:42;5.10;99.90
12130;DHT22;6128;59.340;18.040;2023-03-14T15:02:27;5.00;99.90
12130;DHT22;6128;59.340;18.040;2023-03-14T15:04:55;5.00;99.90
12130;DHT22;6128;59.340;18.040;2023-03-14T15:07:22;5.00;99.90
12130;DHT22;6128;59.340;18.040;2023-03-14T15:09:50;5.00;99.90
12130;DHT22;6128;59.340;18.040;2023-03-14T15:12:17;4.90;99.90
12130;DHT22;6128;59.340;18.040;2023-03-14T15:14:45;4.90;99.90
12130;DHT22;6128;59.340;18.040;2023-03-14T15:17:14;4.80;99.90
12130;DHT22;6128;59.340;18.040;2023-03-14T15:19:41;4.80;99.90
12130;DHT22;6128;59.340;18.040;2023-03-14T15:22:12;4.80;99.90
12130;DHT22;6128;59.340;18.040;2023-03-14T15:24:40;4.80;99.90
12130;DHT22;6128;59.340;18.040;2023-03-14T15:27:13;4.80;99.90
12130;DHT22;6128;59.340;18.040;2023-03-14T15:29:41;4.80;99.90
12130;DHT22;6128;59.340;18.040;2023-03-14T15:32:12;4.80;99.90
12130;DHT22;6128;59.340;18.040;2023-03-14T15:34:41;4.70;99.90
12130;DHT22;6128;59.340;18.040;2023-03-14T15:37:11;4.70;99.90
12130;DHT22;6128;59.340;18.040;2023-03-14T15:39:38;4.70;99.90
12130;DHT22;6128;59.340;18.040;2023-03-14T15:42:06;4.70;99.90
12130;DHT22;6128;59.340;18.040;2023-03-14T15:44:33;4.60;99.90
12130;DHT22;6128;59.340;18.040;2023-03-14T15:47:00;4.50;99.90
12130;DHT22;6128;59.340;18.040;2023-03-14T15:49:28;4.50;99.90
12130;DHT22;6128;59.340;18.040;2023-03-14T15:51:57;4.50;99.90
12130;DHT22;6128;59.340;18.040;2023-03-14T15:54:24;4.50;99.90
12130;DHT22;6128;59.340;18.040;2023-03-14T15:56:54;4.50;99.90
12130;DHT22;6128;59.340;18.040;2023-03-14T15:59:22;4.50;99.90
12130;DHT22;6128;59.340;18.040;2023-03-14T16:01:49;4.50;99.90
12130;DHT22;6128;59.340;18.040;2023-03-14T16:04:17;4.40;99.90
12130;DHT22;6128;59.340;18.040;2023-03-14T16:06:45;4.40;99.90
12130;DHT22;6128;59.340;18.040;2023-03-14T16:09:14;4.50;99.90